TimeEST,TemperatureF,Dew PointF,Humidity,Sea Level PressureIn,VisibilityMPH,Wind Direction,Wind SpeedMPH,Gust SpeedMPH,PrecipitationIn,Events,Conditions,WindDirDegrees,DateUTC
12:56 AM,43.0,34.0,71,30.26,10.0,SSE,6.9,-,N/A,,Overcast,150,2007-01-01 05:56:00
2:56 AM,46.0,37.9,73,30.21,10.0,SSE,11.5,-,N/A,,Overcast,150,2007-01-01 07:56:00
4:56 AM,46.9,43.0,86,30.14,7.0,SSE,10.4,19.6,0.04,Rain,Light Rain,160,2007-01-01 09:56:00
5:56 AM,48.0,45.0,89,30.10,3.0,SE,11.5,-,0.06,Rain,Light Rain,140,2007-01-01 10:56:00
6:04 AM,48.2,44.6,87,30.09,4.0,SE,12.7,-,0.01,Rain,Light Rain,140,2007-01-01 11:04:00
6:28 AM,48.2,46.4,93,30.08,3.0,SE,15.0,-,0.02,Rain,Light Rain,140,2007-01-01 11:28:00
6:56 AM,48.9,46.9,93,30.06,6.0,SE,17.3,23.0,0.03,,Overcast,140,2007-01-01 11:56:00
7:07 AM,50.0,46.4,87,30.05,8.0,SE,12.7,21.9,N/A,,Overcast,130,2007-01-01 12:07:00
7:25 AM,50.0,46.4,87,30.04,9.0,SE,12.7,24.2,N/A,,Overcast,130,2007-01-01 12:25:00
7:44 AM,51.8,48.2,88,30.04,4.0,SE,16.1,21.9,0.01,Rain,Light Rain,140,2007-01-01 12:44:00
7:56 AM,51.1,48.0,89,30.03,4.0,SE,15.0,19.6,0.01,Rain,Light Rain,140,2007-01-01 12:56:00
8:56 AM,52.0,50.0,93,30.00,4.0,SSE,19.6,26.5,0.05,Rain,Light Rain,150,2007-01-01 13:56:00
9:17 AM,53.6,51.8,94,29.99,2.0,SSE,16.1,-,0.06,Rain,Rain,160,2007-01-01 14:17:00
9:29 AM,53.6,51.8,94,29.99,2.5,SSE,17.3,-,0.09,Rain,Rain,160,2007-01-01 14:29:00
9:48 AM,53.6,51.8,94,29.97,3.0,SSE,18.4,26.5,0.13,Rain,Light Rain,160,2007-01-01 14:48:00
10:03 AM,53.6,51.8,94,29.96,3.0,SSE,21.9,-,0.01,Rain,Light Rain,160,2007-01-01 15:03:00
10:10 AM,53.6,51.8,94,29.96,2.5,South,21.9,28.8,0.02,Rain,Light Rain,170,2007-01-01 15:10:00
10:17 AM,53.6,51.8,94,29.95,3.0,SSE,20.7,28.8,0.04,Rain,Light Rain,160,2007-01-01 15:17:00
10:27 AM,53.6,51.8,94,29.93,2.5,SSE,21.9,27.6,0.07,Rain,Rain,160,2007-01-01 15:27:00
10:56 AM,54.0,52.0,93,29.91,3.0,South,20.7,32.2,0.13,Rain,Light Rain,170,2007-01-01 15:56:00
11:18 AM,53.6,51.8,94,29.89,2.5,South,23.0,32.2,0.03,Rain,Light Rain,170,2007-01-01 16:18:00
11:26 AM,53.6,51.8,94,29.89,3.0,South,20.7,33.4,0.04,Rain,Light Rain,170,2007-01-01 16:26:00
11:33 AM,53.6,51.8,94,29.89,1.8,South,21.9,32.2,0.08,Rain,Rain,170,2007-01-01 16:33:00
11:56 AM,54.0,53.1,97,29.87,1.5,South,17.3,25.3,0.19,Rain,Rain,180,2007-01-01 16:56:00
12:05 PM,53.6,53.6,100,29.87,1.5,South,21.9,29.9,0.03,Rain,Rain,170,2007-01-01 17:05:00
1:07 PM,53.6,53.6,100,29.85,2.5,SSW,11.5,-,0.00,,Overcast,210,2007-01-01 18:07:00
2:05 PM,55.4,53.6,94,29.82,0.8,SSW,10.4,-,0.13,Rain,Heavy Rain,210,2007-01-01 19:05:00
2:13 PM,55.4,53.6,94,29.82,1.2,SSW,10.4,-,0.17,Rain,Rain,210,2007-01-01 19:13:00
2:28 PM,55.4,53.6,94,29.80,3.0,South,10.4,-,0.23,Rain,Light Rain,190,2007-01-01 19:28:00
3:38 PM,53.6,53.6,100,29.80,2.5,South,13.8,-,0.01,Rain,Light Rain,190,2007-01-01 20:38:00
3:56 PM,54.0,53.1,97,29.78,3.0,South,11.5,-,0.04,Rain,Light Rain,180,2007-01-01 20:56:00
5:56 PM,55.0,54.0,96,29.71,8.0,SSW,11.5,-,0.05,Rain,Light Rain,210,2007-01-01 22:56:00
6:20 PM,53.6,53.6,100,29.73,7.0,SW,10.4,-,0.00,Rain,Light Rain,220,2007-01-01 23:20:00
6:56 PM,54.0,52.0,93,29.74,3.0,SW,10.4,-,0.00,,Overcast,230,2007-01-01 23:56:00
7:42 PM,53.6,51.8,94,29.72,2.0,SW,8.1,-,N/A,,Overcast,230,2007-01-02 00:42:00
7:56 PM,53.1,52.0,96,29.73,1.5,SW,5.8,-,N/A,,Overcast,220,2007-01-02 00:56:00
8:21 PM,53.6,51.8,94,29.70,3.0,WSW,4.6,-,N/A,,Overcast,240,2007-01-02 01:21:00
8:56 PM,54.0,52.0,93,29.73,6.0,West,10.4,-,N/A,,Overcast,270,2007-01-02 01:56:00
9:23 PM,53.6,51.8,94,29.69,10.0,WNW,12.7,-,0.01,,Mostly Cloudy,290,2007-01-02 02:23:00
9:32 PM,53.6,51.8,94,29.66,10.0,NW,8.1,-,0.01,,Mostly Cloudy,320,2007-01-02 02:32:00
9:56 PM,53.1,48.0,83,29.68,10.0,WNW,11.5,-,0.01,,Partly Cloudy,300,2007-01-02 02:56:00
10:56 PM,51.1,44.1,77,29.70,10.0,NW,12.7,-,N/A,,Mostly Cloudy,310,2007-01-02 03:56:00
11:56 PM,50.0,45.0,83,29.72,10.0,WNW,9.2,-,N/A,,Mostly Cloudy,300,2007-01-02 04:56:00